Map

Track Data

SID SEASON NUMBER BASIN SUBBASIN NAME ISO_TIME NATURE LAT LON WMO_WIND WMO_PRES WMO_AGENCY TRACK_TYPE DIST2LAND LANDFALL IFLAG USA_AGENCY USA_ATCF_ID USA_LAT USA_LON USA_RECORD USA_STATUS USA_WIND USA_PRES USA_SSHS USA_R34_NE USA_R34_SE USA_R34_SW USA_R34_NW USA_R50_NE USA_R50_SE USA_R50_SW USA_R50_NW USA_R64_NE USA_R64_SE USA_R64_SW USA_R64_NW USA_POCI USA_ROCI USA_RMW USA_EYE TOKYO_LAT TOKYO_LON TOKYO_GRADE TOKYO_WIND TOKYO_PRES TOKYO_R50_DIR TOKYO_R50_LONG TOKYO_R50_SHORT TOKYO_R30_DIR TOKYO_R30_LONG TOKYO_R30_SHORT TOKYO_LAND CMA_LAT CMA_LON CMA_CAT CMA_WIND CMA_PRES HKO_LAT HKO_LON HKO_CAT HKO_WIND HKO_PRES NEWDELHI_LAT NEWDELHI_LON NEWDELHI_GRADE NEWDELHI_WIND NEWDELHI_PRES NEWDELHI_CI NEWDELHI_DP NEWDELHI_POCI REUNION_LAT REUNION_LON REUNION_TYPE REUNION_WIND REUNION_PRES REUNION_TNUM REUNION_CI REUNION_RMW REUNION_R34_NE REUNION_R34_SE REUNION_R34_SW REUNION_R34_NW REUNION_R50_NE REUNION_R50_SE REUNION_R50_SW REUNION_R50_NW REUNION_R64_NE REUNION_R64_SE REUNION_R64_SW REUNION_R64_NW BOM_LAT BOM_LON BOM_TYPE BOM_WIND BOM_PRES BOM_TNUM BOM_CI BOM_RMW BOM_R34_NE BOM_R34_SE BOM_R34_SW BOM_R34_NW BOM_R50_NE BOM_R50_SE BOM_R50_SW BOM_R50_NW BOM_R64_NE BOM_R64_SE BOM_R64_SW BOM_R64_NW BOM_ROCI BOM_POCI BOM_EYE BOM_POS_METHOD BOM_PRES_METHOD NADI_LAT NADI_LON NADI_CAT NADI_WIND NADI_PRES WELLINGTON_LAT WELLINGTON_LON WELLINGTON_WIND WELLINGTON_PRES DS824_LAT DS824_LON DS824_STAGE DS824_WIND DS824_PRES TD9636_LAT TD9636_LON TD9636_STAGE TD9636_WIND TD9636_PRES TD9635_LAT TD9635_LON TD9635_WIND TD9635_PRES TD9635_ROCI NEUMANN_LAT NEUMANN_LON NEUMANN_CLASS NEUMANN_WIND NEUMANN_PRES MLC_LAT MLC_LON MLC_CLASS MLC_WIND MLC_PRES USA_GUST BOM_GUST BOM_GUST_PER REUNION_GUST REUNION_GUST_PER USA_SEAHGT USA_SEARAD_NE USA_SEARAD_SE USA_SEARAD_SW USA_SEARAD_NW STORM_SPEED STORM_DIR
1912241N20087 1912 39 NI BB NOT_NAMED 1912-08-28 00:00:00 TS 20.0000 87.0000 main 45 23 _________O____ -1 20.0000 87.0000 TC 30 4 336
1912241N20087 1912 39 NI BB NOT_NAMED 1912-08-28 03:00:00 TS 20.2017 86.9034 main 23 0 _________PO___ -1 20.3025 86.8551 TC 30 20.0000 87.0000 1 5 335
1912241N20087 1912 39 NI BB NOT_NAMED 1912-08-28 06:00:00 TS 20.4801 86.7596 main 0 0 _________OP___ -1 20.6000 86.7000 TC 30 20.3002 86.8491 1 6 333
1912241N20087 1912 39 NI BB NOT_NAMED 1912-08-28 09:00:00 TS 20.7672 86.5935 main 0 0 _________PP___ -1 20.8924 86.5223 TC 30 20.6003 86.6883 1 7 330
1912241N20087 1912 39 NI BB NOT_NAMED 1912-08-28 12:00:00 TS 21.0501 86.4042 main 0 0 _________OP___ -1 21.2000 86.3000 TC 30 20.9002 86.5084 1 7 326
1912241N20087 1912 39 NI BB NOT_NAMED 1912-08-28 15:00:00 TS 21.3750 86.1612 main 0 0 _________PO___ -1 21.5500 86.0225 TC 30 21.2000 86.3000 1 8 323
1912241N20087 1912 39 NI BB NOT_NAMED 1912-08-28 18:00:00 TS 21.7006 85.8769 main 0 0 _________OP___ -1 21.9000 85.7000 TC 30 21.5011 86.0537 1 8 319
1912241N20087 1912 39 NI BB NOT_NAMED 1912-08-28 21:00:00 TS 21.9982 85.5739 main 0 0 _________PP___ -1 22.1847 85.3869 TC 30 21.8117 85.7608 1 9 315
1912241N20087 1912 39 NI BB NOT_NAMED 1912-08-29 00:00:00 TS 22.3207 85.2063 main 0 0 _________OP___ -1 22.5000 85.0000 TC 30 22.1415 85.4126 1 11 313
1912241N20087 1912 39 NI BB NOT_NAMED 1912-08-29 03:00:00 TS 22.7175 84.7401 main 0 0 _________PO___ -1 22.9351 84.4802 TC 30 22.5000 85.0000 1 12 312
1912241N20087 1912 39 NI BB NOT_NAMED 1912-08-29 06:00:00 TS 23.1541 84.2176 main 0 0 _________OP___ -1 23.4000 83.9000 TC 30 22.9083 84.5352 1 13 311
1912241N20087 1912 39 NI BB NOT_NAMED 1912-08-29 09:00:00 TS 23.5746 83.6848 main 0 0 _________PP___ -1 23.8071 83.3644 TC 30 23.3421 84.0051 1 13 309
1912241N20087 1912 39 NI BB NOT_NAMED 1912-08-29 12:00:00 TS 23.9899 83.1112 main 0 0 _________OP___ -1 24.2000 82.8000 TC 30 23.7799 83.4224 1 14 307
1912241N20087 1912 39 NI BB NOT_NAMED 1912-08-29 15:00:00 TS 24.4074 82.4862 main 0 0 _________PO___ -1 24.6148 82.1724 TC 30 24.2000 82.8000 1 14 304
1912241N20087 1912 39 NI BB NOT_NAMED 1912-08-29 18:00:00 TS 24.8026 81.8066 main 0 0 _________OP___ -1 25.0000 81.5000 TC 30 24.6052 82.1132 1 15 301
1912241N20087 1912 39 NI BB NOT_NAMED 1912-08-29 21:00:00 TS 25.1610 81.0808 main 0 0 _________PP___ -1 25.3378 80.7626 TC 30 24.9842 81.3991 1 14 297
1912241N20087 1912 39 NI BB NOT_NAMED 1912-08-30 00:00:00 TS 25.4605 80.4051 main 0 0 _________OP___ -1 25.6000 80.1000 TC 30 25.3209 80.7102 1 12 296
1912241N20087 1912 39 NI BB NOT_NAMED 1912-08-30 03:00:00 TS 25.6860 79.8735 main 0 0 _________PO___ -1 25.7720 79.6469 TC 30 25.6000 80.1000 1 9 295
1912241N20087 1912 39 NI BB NOT_NAMED 1912-08-30 06:00:00 TS 25.8508 79.4702 main 0 0 _________OP___ -1 25.9000 79.3000 TC 30 25.8015 79.6405 1 8 294
1912241N20087 1912 39 NI BB NOT_NAMED 1912-08-30 09:00:00 TS 26.0000 79.1073 main 0 0 _________PP___ -1 26.0498 78.9499 TC 30 25.9502 79.2647 1 7 294
1912241N20087 1912 39 NI BB NOT_NAMED 1912-08-30 12:00:00 TS 26.1369 78.7658 main 0 0 _________OP___ -1 26.2000 78.6000 TC 30 26.0738 78.9316 1 7 293
1912241N20087 1912 39 NI BB NOT_NAMED 1912-08-30 15:00:00 TS 26.2712 78.4037 main 0 0 _________PO___ -1 26.3425 78.2073 TC 30 26.2000 78.6000 1 7 293
1912241N20087 1912 39 NI BB NOT_NAMED 1912-08-30 18:00:00 TS 26.4143 78.0495 main 0 0 _________OP___ -1 26.5000 77.8000 TC 30 26.3501 78.2366 1 7 296
1912241N20087 1912 39 NI AS NOT_NAMED 1912-08-30 21:00:00 TS 26.5892 77.6645 main 0 0 _________PP___ -1 26.6902 77.3978 TC 30 26.5220 77.8423 1 8 298
1912241N20087 1912 39 NI AS NOT_NAMED 1912-08-31 00:00:00 TS 26.7719 77.2846 main 0 0 _________OP___ -1 26.9000 77.0000 TC 30 26.7078 77.4268 1 7 298
1912241N20087 1912 39 NI AS NOT_NAMED 1912-08-31 03:00:00 NR 26.9000 77.0000 main 0 __________O___ -1 TC 26.9000 77.0000 1 6 297

About IBTrACS Database

This database is a web-friendly format of International Best Track Archive for Climate Stewardship (IBTrACS), a global best track data archive curated by NOAA dating back to 1842.

Updated: 2021-10-25